Time;durP1;ratioP1;P1;durP2;ratioP2;P2;SDS_P1;SDS_P2;PMS_P1;PMS_P2;Temp;Humidity;BMP_temperature;BMP_pressure;BME280_temperature;BME280_humidity;BME280_pressure;Samples;Min_cycle;Max_cycle;Signal;HPM_P1;HPM_P2
2023/01/07 08:05:11;;;;;;;9.70;7.03;;;2.40;99.90;;;;;;5128494;27;20574;-80
2023/01/07 08:07:37;;;;;;;8.37;5.60;;;2.40;99.90;;;;;;5128219;28;20466;-80
2023/01/07 08:10:03;;;;;;;8.10;6.27;;;2.30;99.90;;;;;;5123281;28;20795;-83
2023/01/07 08:12:30;;;;;;;8.47;6.83;;;2.30;99.90;;;;;;5113746;28;20413;-82
2023/01/07 08:14:55;;;;;;;8.13;6.50;;;2.30;99.90;;;;;;5114844;28;20405;-82
2023/01/07 08:17:21;;;;;;;11.10;7.40;;;2.30;99.90;;;;;;5113923;28;20405;-81
2023/01/07 08:19:46;;;;;;;7.20;5.90;;;2.40;99.90;;;;;;5115937;28;20180;-81
2023/01/07 08:22:12;;;;;;;9.23;4.93;;;2.50;99.90;;;;;;5115115;28;20198;-83
2023/01/07 08:24:38;;;;;;;6.60;5.00;;;2.90;99.90;;;;;;5114228;28;20199;-84
2023/01/07 08:27:03;;;;;;;5.20;4.70;;;3.70;99.90;;;;;;5114215;28;20179;-84
2023/01/07 08:29:29;;;;;;;5.00;3.90;;;4.40;99.90;;;;;;5113640;28;20178;-84
2023/01/07 08:31:55;;;;;;;5.97;3.70;;;5.00;99.90;;;;;;5115306;28;20345;-84
2023/01/07 08:34:20;;;;;;;4.80;3.70;;;5.60;99.90;;;;;;5113537;28;20175;-82
2023/01/07 08:36:46;;;;;;;4.40;3.97;;;6.00;99.90;;;;;;5114762;28;20243;-82
2023/01/07 08:39:12;;;;;;;4.23;3.57;;;6.40;99.90;;;;;;5115085;28;20172;-82
2023/01/07 08:41:38;;;;;;;6.37;4.03;;;6.50;99.90;;;;;;5114377;28;20255;-81
2023/01/07 08:44:04;;;;;;;4.30;3.10;;;6.70;99.90;;;;;;5113746;28;20215;-82
2023/01/07 08:46:30;;;;;;;2.87;2.67;;;6.70;99.90;;;;;;5115285;28;20267;-82
2023/01/07 08:48:55;;;;;;;3.27;2.63;;;6.80;99.90;;;;;;5118890;28;20247;-83
2023/01/07 08:51:21;;;;;;;3.27;2.30;;;7.20;99.90;;;;;;5119815;28;20198;-82
2023/01/07 08:53:47;;;;;;;3.63;2.70;;;7.50;99.90;;;;;;5118747;28;20203;-82
2023/01/07 08:56:13;;;;;;;2.93;2.23;;;7.70;99.90;;;;;;5118752;28;20182;-82
2023/01/07 08:58:39;;;;;;;2.70;2.40;;;8.00;99.90;;;;;;5119835;28;20187;-83
2023/01/07 09:01:05;;;;;;;3.47;2.27;;;8.20;99.90;;;;;;5118304;28;20202;-83
2023/01/07 09:03:31;;;;;;;2.73;2.40;;;8.40;99.90;;;;;;5112339;28;20233;-82
2023/01/07 09:05:58;;;;;;;4.00;2.53;;;8.40;99.90;;;;;;5112869;28;20180;-82
2023/01/07 09:08:24;;;;;;;2.83;2.50;;;8.40;99.90;;;;;;5115683;28;20176;-82
2023/01/07 09:10:50;;;;;;;4.13;2.50;;;8.40;99.90;;;;;;5113048;28;20210;-76
2023/01/07 09:13:15;;;;;;;2.10;1.90;;;8.50;99.90;;;;;;5114248;28;20176;-80
2023/01/07 09:15:41;;;;;;;4.70;3.10;;;8.70;99.90;;;;;;5104844;28;20199;-81
2023/01/07 09:18:07;;;;;;;2.53;2.30;;;9.10;99.90;;;;;;5100154;28;20535;-80
2023/01/07 09:20:32;;;;;;;3.83;2.83;;;9.40;99.90;;;;;;5100716;28;20204;-81
2023/01/07 09:22:58;;;;;;;2.60;2.40;;;9.60;99.90;;;;;;5101435;28;20232;-80
2023/01/07 09:25:24;;;;;;;3.00;2.37;;;9.80;99.90;;;;;;5100878;28;20274;-80
2023/01/07 09:27:50;;;;;;;4.53;3.77;;;9.90;99.90;;;;;;5101337;28;20173;-80
2023/01/07 09:30:16;;;;;;;9.17;2.90;;;9.90;99.90;;;;;;5101249;28;20199;-80
2023/01/07 09:32:42;;;;;;;3.00;2.30;;;9.70;99.90;;;;;;5098971;28;20176;-80
2023/01/07 09:35:08;;;;;;;5.93;3.10;;;9.80;99.90;;;;;;5098455;28;20177;-80
2023/01/07 09:37:34;;;;;;;3.47;2.80;;;9.80;99.90;;;;;;5098620;28;20209;-80
2023/01/07 09:40:00;;;;;;;3.40;3.10;;;9.80;99.90;;;;;;5101139;28;20223;-80
2023/01/07 09:43:03;;;;;;;2.53;2.30;;;10.00;99.90;;;;;;5100281;28;20258;-80
2023/01/07 09:45:35;;;;;;;1.97;1.80;;;10.20;99.90;;;;;;5086096;28;20193;-81
2023/01/07 09:48:04;;;;;;;4.67;2.30;;;10.20;99.90;;;;;;5098898;28;20183;-80
2023/01/07 09:50:50;;;;;;;3.03;2.30;;;10.40;99.90;;;;;;5098552;28;20211;-81
2023/01/07 09:53:29;;;;;;;2.53;2.27;;;10.60;99.90;;;;;;5099813;28;20252;-81
2023/01/07 09:55:55;;;;;;;2.40;2.10;;;10.70;99.90;;;;;;5097790;28;20170;-79
2023/01/07 09:58:21;;;;;;;2.37;2.17;;;10.70;99.90;;;;;;5097857;28;20178;-80
2023/01/07 10:01:08;;;;;;;4.27;2.40;;;10.60;99.90;;;;;;5099724;28;20212;-79
2023/01/07 10:03:53;;;;;;;3.30;2.10;;;10.30;99.90;;;;;;5099775;28;20312;-79
2023/01/07 10:06:44;;;;;;;4.57;2.30;;;10.50;99.90;;;;;;5098389;28;20183;-79
2023/01/07 10:09:16;;;;;;;2.90;2.47;;;10.90;99.90;;;;;;5098064;28;20221;-80
2023/01/07 10:11:51;;;;;;;2.53;2.33;;;11.30;99.90;;;;;;5099181;28;20199;-80
2023/01/07 10:14:38;;;;;;;2.67;2.47;;;11.30;99.90;;;;;;5098300;28;20197;-80
2023/01/07 10:17:20;;;;;;;4.10;2.40;;;11.30;99.90;;;;;;5099145;28;20167;-81
2023/01/07 10:20:25;;;;;;;2.40;2.20;;;11.50;99.90;;;;;;5098314;28;20518;-81
2023/01/07 10:23:03;;;;;;;2.57;2.37;;;11.60;99.90;;;;;;5098758;28;20164;-79
2023/01/07 10:25:39;;;;;;;3.73;2.80;;;11.80;99.90;;;;;;5099711;28;20188;-81
2023/01/07 10:28:09;;;;;;;2.50;2.30;;;11.80;99.90;;;;;;5099800;28;20180;-81
2023/01/07 10:30:42;;;;;;;2.50;2.30;;;11.80;99.90;;;;;;5101318;28;20188;-81
2023/01/07 10:33:18;;;;;;;2.07;1.87;;;11.50;99.90;;;;;;5102686;28;20188;-80
2023/01/07 10:35:48;;;;;;;2.23;2.00;;;11.30;99.90;;;;;;5098243;28;20188;-80
2023/01/07 10:38:19;;;;;;;3.17;2.03;;;11.50;99.90;;;;;;5100130;28;20176;-80
2023/01/07 10:40:55;;;;;;;2.43;2.23;;;11.60;99.90;;;;;;5097409;28;20689;-79
2023/01/07 10:43:46;;;;;;;2.67;2.10;;;12.10;99.90;;;;;;5099388;28;20184;-81
2023/01/07 10:46:14;;;;;;;3.50;2.00;;;12.60;99.90;;;;;;5100330;28;20227;-79
2023/01/07 10:49:07;;;;;;;1.80;1.70;;;12.60;99.90;;;;;;5099067;28;20169;-80
2023/01/07 10:51:44;;;;;;;3.50;1.97;;;12.70;99.90;;;;;;5100174;28;20695;-81
2023/01/07 10:54:31;;;;;;;2.30;2.10;;;12.90;99.90;;;;;;5097931;28;20204;-80
2023/01/07 10:57:02;;;;;;;3.00;2.23;;;12.80;99.90;;;;;;5099123;28;20179;-79
2023/01/07 10:59:28;;;;;;;2.03;1.83;;;13.00;99.90;;;;;;5099471;28;20164;-80
2023/01/07 11:01:57;;;;;;;1.90;1.80;;;12.90;99.90;;;;;;5096327;28;20188;-79
2023/01/07 11:04:23;;;;;;;3.37;2.13;;;12.90;99.90;;;;;;5097574;28;20244;-80
2023/01/07 11:06:57;;;;;;;3.17;2.23;;;12.90;99.90;;;;;;5097709;28;20181;-79
2023/01/07 11:09:34;;;;;;;4.50;2.50;;;12.80;99.90;;;;;;5098330;28;20168;-81
2023/01/07 11:12:16;;;;;;;2.20;1.80;;;13.20;99.90;;;;;;5100455;28;20227;-80
2023/01/07 11:14:42;;;;;;;2.50;2.23;;;13.40;99.90;;;;;;5100628;28;20257;-80
2023/01/07 11:17:14;;;;;;;3.73;2.40;;;13.40;99.90;;;;;;5099902;28;20178;-80
2023/01/07 11:19:47;;;;;;;13.17;10.23;;;13.50;99.90;;;;;;5098412;28;20172;-79
2023/01/07 11:22:25;;;;;;;3.87;2.20;;;13.60;99.90;;;;;;5097915;28;20186;-80
2023/01/07 11:24:52;;;;;;;2.13;1.93;;;13.70;99.90;;;;;;5100488;28;20201;-80
2023/01/07 11:27:21;;;;;;;2.27;1.93;;;13.80;99.90;;;;;;5099004;28;20233;-79
2023/01/07 11:30:20;;;;;;;3.23;2.80;;;13.50;99.90;;;;;;5098537;28;20174;-79
2023/01/07 11:33:04;;;;;;;2.50;2.30;;;13.60;99.90;;;;;;5098042;28;20644;-80
2023/01/07 11:35:30;;;;;;;4.00;2.50;;;14.20;99.90;;;;;;5098482;28;20174;-80
2023/01/07 11:37:57;;;;;;;2.40;2.20;;;14.30;99.90;;;;;;5101156;28;20649;-80
2023/01/07 11:40:31;;;;;;;4.40;2.30;;;14.70;99.90;;;;;;5101227;28;20191;-81
2023/01/07 11:42:58;;;;;;;4.30;2.13;;;14.80;99.90;;;;;;5101536;28;20208;-80
2023/01/07 11:45:52;;;;;;;2.60;2.20;;;14.70;99.90;;;;;;5100567;28;20703;-81
2023/01/07 11:48:41;;;;;;;2.10;1.83;;;15.10;99.90;;;;;;5100837;28;20526;-81
2023/01/07 11:51:09;;;;;;;1.70;1.60;;;15.30;99.90;;;;;;5099958;28;20687;-81
2023/01/07 11:53:49;;;;;;;1.70;1.57;;;15.20;99.90;;;;;;5101033;28;20194;-80
2023/01/07 11:56:28;;;;;;;3.67;2.33;;;14.80;99.90;;;;;;5099898;28;20171;-80
2023/01/07 11:59:14;;;;;;;2.83;2.63;;;15.00;99.90;;;;;;5100115;28;20158;-82
2023/01/07 12:01:45;;;;;;;3.80;2.30;;;15.60;99.90;;;;;;5099836;28;20206;-80
2023/01/07 12:04:19;;;;;;;3.03;2.43;;;15.80;99.90;;;;;;5102026;28;20188;-82
2023/01/07 12:06:47;;;;;;;2.30;2.10;;;15.40;99.90;;;;;;5105283;28;20162;-81
2023/01/07 12:09:42;;;;;;;15.33;14.07;;;15.60;99.90;;;;;;5098227;28;20178;-80
2023/01/07 12:12:38;;;;;;;3.17;2.90;;;15.60;98.90;;;;;;5078477;28;20187;-80
2023/01/07 12:15:16;;;;;;;4.80;3.40;;;14.80;99.90;;;;;;5099310;28;20219;-81
2023/01/07 12:17:45;;;;;;;4.57;3.50;;;14.10;99.70;;;;;;5100870;28;20149;-80
2023/01/07 12:20:36;;;;;;;4.97;3.50;;;13.70;99.90;;;;;;5097136;28;20197;-81
2023/01/07 12:23:16;;;;;;;3.17;2.70;;;13.50;99.90;;;;;;5099321;28;20287;-80
2023/01/07 12:26:10;;;;;;;2.83;1.83;;;13.10;99.90;;;;;;5098726;28;20153;-81
2023/01/07 12:28:49;;;;;;;2.80;2.20;;;12.60;99.90;;;;;;5098261;28;20165;-80
2023/01/07 12:31:34;;;;;;;2.30;1.77;;;12.20;99.90;;;;;;5100058;28;20669;-80
2023/01/07 12:34:04;;;;;;;2.13;1.73;;;11.80;99.90;;;;;;5099514;28;20229;-80
2023/01/07 12:36:44;;;;;;;3.70;3.30;;;11.60;99.90;;;;;;5097221;28;20171;-81
2023/01/07 12:39:37;;;;;;;3.47;2.30;;;11.50;99.90;;;;;;5099192;28;20166;-81
2023/01/07 12:42:25;;;;;;;2.63;2.10;;;11.40;99.90;;;;;;5091806;28;20187;-81
2023/01/07 12:44:55;;;;;;;1.90;1.70;;;11.20;99.90;;;;;;5096662;28;20525;-81
2023/01/07 12:47:49;;;;;;;3.23;2.53;;;11.00;99.90;;;;;;5098882;28;20175;-81
2023/01/07 12:50:30;;;;;;;3.40;3.10;;;10.70;99.90;;;;;;5099294;28;20559;-81
2023/01/07 12:53:14;;;;;;;2.80;2.20;;;10.70;99.90;;;;;;5101770;28;20171;-81
2023/01/07 12:55:49;;;;;;;2.20;2.00;;;10.60;99.90;;;;;;5102724;28;20614;-81
2023/01/07 12:58:44;;;;;;;2.33;2.10;;;10.60;99.90;;;;;;5104231;28;20170;-82
2023/01/07 13:01:19;;;;;;;2.27;2.07;;;10.40;99.90;;;;;;5101472;28;20266;-80
2023/01/07 13:03:54;;;;;;;2.50;2.00;;;10.20;99.90;;;;;;5100609;28;20191;-80
2023/01/07 13:06:35;;;;;;;3.20;2.20;;;10.10;99.90;;;;;;5103214;28;20180;-80
2023/01/07 13:09:29;;;;;;;2.87;2.23;;;9.90;99.90;;;;;;5102992;28;20180;-81
2023/01/07 13:12:47;;;;;;;4.03;2.60;;;9.80;99.90;;;;;;5072951;28;20200;-82
2023/01/07 13:15:20;;;;;;;4.03;2.60;;;9.60;99.90;;;;;;5101727;28;20313;-81
2023/01/07 13:17:52;;;;;;;3.90;3.00;;;9.50;99.90;;;;;;5099910;28;20701;-80
2023/01/07 13:20:40;;;;;;;3.50;2.67;;;9.40;99.90;;;;;;5101504;28;20198;-81
2023/01/07 13:23:13;;;;;;;2.70;2.40;;;9.40;99.90;;;;;;5101719;28;20168;-80
2023/01/07 13:26:00;;;;;;;3.23;2.77;;;9.40;99.90;;;;;;5100473;28;20167;-83
2023/01/07 13:28:47;;;;;;;3.53;2.73;;;9.30;99.90;;;;;;5099794;28;20154;-78
2023/01/07 13:31:16;;;;;;;3.10;2.80;;;9.30;99.90;;;;;;5100185;28;20208;-78
2023/01/07 13:34:19;;;;;;;3.77;2.93;;;9.20;99.90;;;;;;5101869;28;20230;-78
2023/01/07 13:37:10;;;;;;;2.93;2.63;;;9.00;99.90;;;;;;5095970;28;20197;-78
2023/01/07 13:40:04;;;;;;;7.47;4.17;;;8.90;99.90;;;;;;5095724;28;20183;-78
2023/01/07 13:42:56;;;;;;;5.07;3.90;;;8.80;99.90;;;;;;5073763;28;20236;-78
2023/01/07 13:45:29;;;;;;;11.63;6.30;;;8.80;99.90;;;;;;5096153;28;20193;-79
2023/01/07 13:47:58;;;;;;;5.83;4.50;;;8.60;99.90;;;;;;5097322;28;20222;-78
2023/01/07 13:50:32;;;;;;;4.67;3.60;;;8.60;99.90;;;;;;5096137;28;20198;-79
2023/01/07 13:53:06;;;;;;;3.60;3.30;;;8.70;99.90;;;;;;5095416;28;20162;-77
2023/01/07 13:55:37;;;;;;;3.97;3.40;;;8.60;99.90;;;;;;5096930;28;20564;-77
2023/01/07 13:58:42;;;;;;;4.53;3.60;;;8.50;99.90;;;;;;5095153;28;20269;-77
2023/01/07 14:01:14;;;;;;;6.67;5.27;;;8.50;99.90;;;;;;5094673;28;20199;-77
2023/01/07 14:03:48;;;;;;;7.40;5.60;;;8.40;99.90;;;;;;5094314;28;20188;-77
2023/01/07 14:06:20;;;;;;;11.47;6.33;;;8.30;99.90;;;;;;5094751;28;20224;-77
2023/01/07 14:08:50;;;;;;;6.73;4.90;;;8.30;99.90;;;;;;5094704;28;20191;-77
2023/01/07 14:11:18;;;;;;;10.30;7.27;;;8.00;99.90;;;;;;5094605;28;20200;-77
2023/01/07 14:14:19;;;;;;;6.83;4.47;;;7.90;99.90;;;;;;5095444;28;20207;-77
2023/01/07 14:17:09;;;;;;;4.03;3.63;;;7.90;99.90;;;;;;5094365;28;20168;-77
2023/01/07 14:20:02;;;;;;;4.60;4.00;;;7.90;99.90;;;;;;5095799;28;20736;-76
2023/01/07 14:22:42;;;;;;;4.60;4.20;;;7.90;99.90;;;;;;5094122;28;20171;-77
2023/01/07 14:25:14;;;;;;;4.80;4.30;;;7.70;99.90;;;;;;5095651;28;20183;-77
2023/01/07 14:27:55;;;;;;;6.73;4.33;;;7.70;99.90;;;;;;5095888;28;20676;-77
2023/01/07 14:30:46;;;;;;;6.27;4.40;;;7.60;99.90;;;;;;5095350;28;20664;-77
2023/01/07 14:33:31;;;;;;;4.50;4.10;;;7.30;99.90;;;;;;5091718;28;20203;-77
2023/01/07 14:36:05;;;;;;;4.90;4.40;;;7.20;99.90;;;;;;5094056;28;20180;-77
2023/01/07 14:38:31;;;;;;;4.70;4.20;;;7.10;99.90;;;;;;5093916;28;20159;-77
2023/01/07 14:41:04;;;;;;;7.63;4.47;;;7.10;99.90;;;;;;5095360;28;20738;-77
2023/01/07 14:43:42;;;;;;;5.10;4.33;;;7.00;99.90;;;;;;5096041;28;20181;-78
2023/01/07 14:46:17;;;;;;;5.23;4.17;;;7.10;99.90;;;;;;5096477;28;20209;-78
2023/01/07 14:48:42;;;;;;;6.67;4.43;;;7.10;99.90;;;;;;5097076;28;20187;-77
2023/01/07 14:51:39;;;;;;;6.13;4.90;;;7.10;99.90;;;;;;5096333;28;20196;-77
2023/01/07 14:54:23;;;;;;;6.57;4.90;;;7.10;99.90;;;;;;5095009;28;20195;-77
2023/01/07 14:56:58;;;;;;;5.27;4.77;;;7.10;99.90;;;;;;5096071;28;20207;-78
2023/01/07 14:59:24;;;;;;;5.83;5.10;;;7.10;99.90;;;;;;5096096;28;20548;-78
2023/01/07 15:01:53;;;;;;;8.07;5.70;;;7.20;99.90;;;;;;5094499;28;20234;-77
2023/01/07 15:04:50;;;;;;;11.50;6.60;;;7.10;99.90;;;;;;5095246;28;20195;-78
2023/01/07 15:07:19;;;;;;;9.33;7.30;;;7.10;99.90;;;;;;5096104;28;20206;-78
2023/01/07 15:16:00;;;;;;;5.33;4.83;;;6.90;99.90;;;;;;5095940;28;20168;-78
2023/01/07 15:18:31;;;;;;;7.40;5.83;;;6.80;99.90;;;;;;5095315;28;20262;-78
2023/01/07 15:21:18;;;;;;;7.30;5.87;;;6.80;99.90;;;;;;5095319;28;20228;-77
2023/01/07 15:24:25;;;;;;;6.30;5.43;;;6.80;99.90;;;;;;5094235;28;20167;-78
2023/01/07 15:26:56;;;;;;;5.90;5.30;;;6.70;99.90;;;;;;5093717;28;20664;-77
2023/01/07 15:29:35;;;;;;;6.10;5.50;;;;;;;;;;5093577;28;20182;-77
